Time;durP1;ratioP1;P1;durP2;ratioP2;P2;SDS_P1;SDS_P2;PMS_P1;PMS_P2;Temp;Humidity;BMP_temperature;BMP_pressure;BME280_temperature;BME280_humidity;BME280_pressure;Samples;Min_cycle;Max_cycle;Signal;HPM_P1;HPM_P2
2021/04/10 00:04:36;;;;;;;0.50;0.50;;;5.40;99.90;;;;;;4973710;28;20649;-82
2021/04/10 00:07:02;;;;;;;0.60;0.60;;;2.50;99.90;;;;;;5005783;28;20209;-83
2021/04/10 00:12:22;;;;;;;;;;;;;;;;;;;;;
2021/04/10 00:26:56;;;;;;;0.60;0.60;;;3.50;99.90;;;;;;5022794;23;20373;-82
2021/04/10 00:29:22;;;;;;;0.60;0.60;;;3.40;99.90;;;;;;4995465;28;20238;-82
2021/04/10 00:31:49;;;;;;;0.60;0.60;;;5.30;99.90;;;;;;4992473;28;20204;-83
2021/04/10 00:34:15;;;;;;;0.60;0.60;;;3.10;99.90;;;;;;4994873;28;20277;-83
2021/04/10 00:36:41;;;;;;;0.60;0.60;;;3.20;99.90;;;;;;4994302;28;20194;-82
2021/04/10 00:39:08;;;;;;;0.60;0.60;;;3.40;99.90;;;;;;4991174;28;20285;-82
2021/04/10 00:41:34;;;;;;;0.60;0.60;;;3.30;99.90;;;;;;4995245;28;20252;-83
2021/04/10 00:44:02;;;;;;;0.60;0.60;;;4.70;99.90;;;;;;4998103;28;20217;-83
2021/04/10 00:46:29;;;;;;;0.60;0.60;;;3.80;99.90;;;;;;5000308;28;20520;-83
2021/04/10 00:48:55;;;;;;;0.60;0.60;;;3.60;99.90;;;;;;4998147;28;20198;-82
2021/04/10 00:51:22;;;;;;;0.57;0.57;;;3.40;99.90;;;;;;4996230;28;20223;-83
2021/04/10 00:53:48;;;;;;;0.60;0.60;;;3.80;99.90;;;;;;4997964;28;20206;-83
2021/04/10 00:56:14;;;;;;;0.60;0.60;;;5.70;99.90;;;;;;4996339;28;20269;-83
2021/04/10 00:58:41;;;;;;;0.60;0.60;;;3.60;99.90;;;;;;4999055;28;20290;-83
2021/04/10 01:01:09;;;;;;;0.60;0.60;;;3.70;99.90;;;;;;4998494;28;20707;-83
2021/04/10 01:03:35;;;;;;;0.60;0.60;;;3.50;99.90;;;;;;4996871;28;20206;-83
2021/04/10 01:06:02;;;;;;;0.60;0.60;;;3.10;99.90;;;;;;4997201;28;20672;-83
2021/04/10 01:08:29;;;;;;;0.50;0.50;;;3.50;99.90;;;;;;4999236;28;20245;-83
2021/04/10 01:11:05;;;;;;;0.60;0.60;;;2.80;99.90;;;;;;5000686;28;20202;-83
2021/04/10 01:13:37;;;;;;;0.60;0.60;;;2.90;99.90;;;;;;4999082;28;20297;-83
2021/04/10 01:16:12;;;;;;;0.60;0.60;;;3.00;99.90;;;;;;4995524;28;20213;-83
2021/04/10 01:18:46;;;;;;;0.60;0.60;;;2.80;99.90;;;;;;4997306;28;20300;-83
2021/04/10 01:21:22;;;;;;;0.60;0.60;;;3.20;99.90;;;;;;4997159;28;20205;-83
2021/04/10 01:24:15;;;;;;;0.60;0.60;;;2.50;99.90;;;;;;4997161;28;20728;-83
2021/04/10 01:26:56;;;;;;;0.60;0.60;;;3.10;99.90;;;;;;4997690;28;20238;-83
2021/04/10 01:29:26;;;;;;;0.52;0.52;;;2.70;99.90;;;;;;4996757;28;20298;-83
2021/04/10 01:31:56;;;;;;;0.50;0.50;;;3.00;99.90;;;;;;4996613;28;20268;-83
2021/04/10 01:34:30;;;;;;;0.60;0.60;;;2.80;99.90;;;;;;4999464;28;20206;-82
2021/04/10 01:37:03;;;;;;;0.60;0.60;;;4.10;99.90;;;;;;4990497;28;20206;-83
2021/04/10 01:39:32;;;;;;;0.60;0.60;;;2.80;99.90;;;;;;4990115;28;20206;-83
2021/04/10 01:41:59;;;;;;;0.60;0.60;;;2.90;99.90;;;;;;4986437;28;20202;-83
2021/04/10 01:44:27;;;;;;;0.50;0.50;;;3.00;99.90;;;;;;4988946;28;20233;-84
2021/04/10 01:46:54;;;;;;;0.60;0.60;;;2.90;99.90;;;;;;4988948;28;20429;-83
2021/04/10 01:49:20;;;;;;;0.50;0.50;;;3.00;99.90;;;;;;4989018;28;20740;-83
2021/04/10 01:51:48;;;;;;;0.60;0.60;;;3.10;99.90;;;;;;4989242;28;20300;-83
2021/04/10 01:54:15;;;;;;;0.60;0.60;;;3.10;99.90;;;;;;4989106;28;20210;-84
2021/04/10 01:56:44;;;;;;;0.60;0.60;;;3.20;99.90;;;;;;4988564;28;20202;-83
2021/04/10 01:59:13;;;;;;;0.50;0.50;;;3.20;99.90;;;;;;4988774;28;20202;-83
2021/04/10 02:01:41;;;;;;;0.57;0.57;;;3.30;99.90;;;;;;4988863;28;20206;-83
2021/04/10 02:04:10;;;;;;;0.60;0.60;;;3.40;99.90;;;;;;4988986;28;20597;-83
2021/04/10 02:06:37;;;;;;;0.60;0.60;;;3.30;99.90;;;;;;4988625;28;20226;-83
2021/04/10 02:09:05;;;;;;;0.50;0.50;;;3.30;99.90;;;;;;4989158;28;20214;-83
2021/04/10 02:11:33;;;;;;;0.60;0.60;;;3.30;99.90;;;;;;4988961;28;20216;-83
2021/04/10 02:14:00;;;;;;;0.60;0.60;;;3.30;99.90;;;;;;4988950;28;20209;-83
2021/04/10 02:16:26;;;;;;;0.60;0.60;;;3.30;99.90;;;;;;4991517;28;20221;-83
2021/04/10 02:18:53;;;;;;;0.60;0.60;;;3.30;99.90;;;;;;5006691;28;20668;-83
2021/04/10 02:21:26;;;;;;;0.60;0.60;;;3.30;99.90;;;;;;4997566;28;20227;-83
2021/04/10 02:23:52;;;;;;;0.60;0.60;;;3.30;99.90;;;;;;4994705;28;20217;-83
2021/04/10 02:26:19;;;;;;;0.60;0.60;;;3.30;99.90;;;;;;4992278;28;20226;-84
2021/04/10 02:28:45;;;;;;;0.57;0.57;;;3.10;99.90;;;;;;4990572;28;20670;-84
2021/04/10 02:31:15;;;;;;;0.60;0.60;;;3.00;99.90;;;;;;4989761;28;20210;-83
2021/04/10 02:33:45;;;;;;;0.60;0.60;;;2.90;99.90;;;;;;4990106;28;20264;-83
2021/04/10 02:36:16;;;;;;;0.60;0.60;;;2.90;99.90;;;;;;4988317;28;20257;-83
2021/04/10 02:38:44;;;;;;;0.60;0.60;;;2.90;99.90;;;;;;5009382;28;20206;-83
2021/04/10 02:41:14;;;;;;;0.60;0.60;;;2.90;99.90;;;;;;5015858;28;20186;-83
2021/04/10 02:43:43;;;;;;;0.60;0.60;;;2.80;99.90;;;;;;5013934;28;20305;-82
2021/04/10 02:46:12;;;;;;;0.60;0.60;;;2.90;99.90;;;;;;5007150;28;20202;-83
2021/04/10 02:48:50;;;;;;;0.60;0.60;;;2.60;99.90;;;;;;5011224;28;20237;-83
2021/04/10 02:51:21;;;;;;;0.60;0.60;;;2.80;99.90;;;;;;5012800;28;20293;-83
2021/04/10 02:53:53;;;;;;;0.50;0.50;;;2.70;99.90;;;;;;5012718;28;20233;-83
2021/04/10 02:56:25;;;;;;;0.60;0.60;;;4.50;99.90;;;;;;5013329;28;20218;-83
2021/04/10 03:25:25;;;;;;;;;;;;;;;;;;;;;
2021/04/10 03:30:50;;;;;;;0.60;0.60;;;2.10;99.90;;;;;;5296786;22;20241;-82
2021/04/10 03:33:30;;;;;;;;;;;;;;;;;;;;;
2021/04/10 03:36:10;;;;;;;0.57;0.57;;;2.10;99.90;;;;;;5004167;28;20301;-82
2021/04/10 03:38:40;;;;;;;0.60;0.60;;;3.50;99.90;;;;;;5004051;28;20206;-82
2021/04/10 03:41:09;;;;;;;0.50;0.50;;;3.90;99.90;;;;;;5005727;28;20198;-82
2021/04/10 03:43:48;;;;;;;;;;;;;;;;;;;;;
2021/04/10 03:46:17;;;;;;;0.60;0.60;;;2.90;99.90;;;;;;5001293;28;20266;-83
2021/04/10 03:48:51;;;;;;;0.60;0.60;;;1.50;99.90;;;;;;5005063;28;20214;-82
2021/04/10 03:51:29;;;;;;;;;;;;;;;;;;;;;
2021/04/10 03:54:06;;;;;;;;;;;;;;;;;;;;;
2021/04/10 03:59:22;;;;;;;0.60;0.60;;;2.90;99.90;;;;;;5722822;22;20229;-83
2021/04/10 05:01:43;;;;;;;0.50;0.50;;;3.20;99.90;;;;;;5825373;23;20223;-83
2021/04/10 05:04:11;;;;;;;0.60;0.60;;;2.00;99.90;;;;;;5005772;28;20210;-81
2021/04/10 05:06:40;;;;;;;0.60;0.60;;;3.20;99.90;;;;;;5017191;28;20190;-82
2021/04/10 05:09:11;;;;;;;0.60;0.60;;;2.70;99.90;;;;;;5017147;28;20218;-82
2021/04/10 06:37:02;;;;;;;0.50;0.50;;;4.30;99.90;;;;;;5051157;22;20240;-79
2021/04/10 06:40:09;;;;;;;0.60;0.60;;;4.40;99.90;;;;;;5007305;28;20198;-81
2021/04/10 06:47:48;;;;;;;0.60;0.60;;;4.40;99.90;;;;;;4912743;22;20719;-82
2021/04/10 06:50:14;;;;;;;0.50;0.50;;;4.50;99.90;;;;;;4998788;28;20206;-82
2021/04/10 06:52:43;;;;;;;0.60;0.60;;;4.50;99.90;;;;;;5023082;28;20232;-81
2021/04/10 06:55:12;;;;;;;0.55;0.55;;;4.60;99.90;;;;;;5032497;28;20269;-81
2021/04/10 06:57:47;;;;;;;0.60;0.60;;;4.50;99.90;;;;;;5032046;28;20229;-81
2021/04/10 07:03:28;;;;;;;;;;;;;;;;;;;;;
2021/04/10 07:06:20;;;;;;;;;;;;;;;;;;;;;
2021/04/10 07:09:04;;;;;;;0.52;0.52;;;4.40;99.90;;;;;;5101127;22;20237;-81
2021/04/10 07:11:30;;;;;;;0.60;0.60;;;5.10;99.90;;;;;;5013001;28;20209;-82
2021/04/10 07:14:47;;;;;;;0.60;0.60;;;5.00;99.90;;;;;;5014193;28;20210;-82
2021/04/10 07:17:13;;;;;;;0.60;0.60;;;4.90;99.90;;;;;;4912267;29;20236;-82
2021/04/10 07:19:40;;;;;;;0.60;0.60;;;6.70;99.90;;;;;;4965405;28;20206;-82
2021/04/10 07:22:08;;;;;;;0.60;0.60;;;4.90;99.90;;;;;;4997283;28;20206;-82
2021/04/10 07:24:41;;;;;;;0.60;0.60;;;4.90;99.90;;;;;;4996244;28;20218;-82
2021/04/10 07:27:09;;;;;;;0.55;0.55;;;4.90;99.90;;;;;;4997685;28;20233;-82
2021/04/10 07:29:37;;;;;;;0.60;0.60;;;5.00;99.90;;;;;;4999375;28;20205;-82
2021/04/10 07:32:26;;;;;;;0.60;0.60;;;4.90;99.90;;;;;;4999492;28;20221;-81
2021/04/10 07:34:53;;;;;;;0.60;0.60;;;5.00;99.90;;;;;;4997712;28;20214;-83
2021/04/10 07:37:31;;;;;;;0.60;0.60;;;5.10;99.90;;;;;;5000753;28;20198;-83
2021/04/10 07:39:58;;;;;;;0.60;0.60;;;5.10;99.90;;;;;;5014513;28;20210;-82
2021/04/10 07:42:25;;;;;;;0.60;0.60;;;5.20;99.90;;;;;;5018695;28;20206;-82
2021/04/10 07:44:52;;;;;;;0.60;0.60;;;5.30;99.90;;;;;;5019888;28;20226;-82
2021/04/10 07:47:19;;;;;;;0.60;0.60;;;5.40;99.90;;;;;;5016972;28;20300;-82
2021/04/10 08:10:35;;;;;;;0.60;0.60;;;5.60;99.90;;;;;;5500836;22;20233;-82
2021/04/10 08:13:08;;;;;;;0.60;0.60;;;5.60;99.90;;;;;;5004548;28;20205;-81
2021/04/10 08:15:34;;;;;;;0.60;0.60;;;4.90;99.90;;;;;;5001122;28;20206;-83
2021/04/10 08:18:01;;;;;;;0.60;0.60;;;5.60;99.90;;;;;;5009666;28;20203;-81
2021/04/10 08:20:37;;;;;;;0.60;0.60;;;5.50;99.90;;;;;;5502505;22;20937;-82
2021/04/10 08:25:35;;;;;;;0.60;0.60;;;5.40;99.90;;;;;;5001869;28;20234;-81
2021/04/10 08:53:57;;;;;;;0.60;0.60;;;6.10;99.90;;;;;;5763882;23;20237;-85
2021/04/10 08:56:26;;;;;;;0.60;0.60;;;6.10;99.90;;;;;;5011866;28;20214;-79
2021/04/10 08:59:08;;;;;;;0.50;0.50;;;6.10;99.90;;;;;;5000893;28;20212;-80
2021/04/10 09:01:47;;;;;;;;;;;;;;;;;;;;;
2021/04/10 09:04:21;;;;;;;0.60;0.60;;;7.60;99.90;;;;;;4989704;28;20669;-79
2021/04/10 09:06:51;;;;;;;0.50;0.50;;;8.30;99.90;;;;;;4991697;28;20266;-79
2021/04/10 09:09:39;;;;;;;0.60;0.60;;;5.80;99.90;;;;;;5006404;28;20252;-80
2021/04/10 09:12:27;;;;;;;0.60;0.60;;;6.40;99.90;;;;;;5009203;28;20218;-79
2021/04/10 09:14:53;;;;;;;0.60;0.60;;;7.20;99.90;;;;;;5004338;28;20256;-80
2021/04/10 09:17:41;;;;;;;0.60;0.60;;;6.40;99.90;;;;;;5005118;28;20206;-79
2021/04/10 09:20:10;;;;;;;0.60;0.60;;;6.50;99.90;;;;;;5009951;28;20210;-79
2021/04/10 09:22:40;;;;;;;0.60;0.60;;;6.70;99.90;;;;;;5016091;28;20202;-81
2021/04/10 09:25:28;;;;;;;0.60;0.60;;;5.90;99.90;;;;;;5008812;28;20205;-80
2021/04/10 09:28:08;;;;;;;0.50;0.50;;;8.50;99.90;;;;;;5009281;28;20237;-80
2021/04/10 09:30:38;;;;;;;0.60;0.60;;;6.90;99.90;;;;;;5008674;28;20212;-79
2021/04/10 09:33:35;;;;;;;0.60;0.60;;;6.80;99.90;;;;;;4992694;28;20242;-84
2021/04/10 09:36:02;;;;;;;0.60;0.60;;;6.80;99.90;;;;;;4971357;28;20211;-83
2021/04/10 09:41:50;;;;;;;0.60;0.60;;;6.80;99.90;;;;;;5051141;23;20249;-86
2021/04/10 10:05:55;;;;;;;0.60;0.60;;;7.80;99.90;;;;;;5545070;22;20218;-85
2021/04/10 10:21:23;;;;;;;0.60;0.60;;;7.50;99.90;;;;;;5158715;22;20245;-85
2021/04/10 10:23:52;;;;;;;0.60;0.60;;;7.90;99.90;;;;;;5006734;28;20218;-84
2021/04/10 10:26:23;;;;;;;0.60;0.60;;;6.10;99.90;;;;;;5003956;28;20226;-85
2021/04/10 10:28:53;;;;;;;0.60;0.60;;;7.60;99.90;;;;;;5001715;28;20230;-83
2021/04/10 10:31:23;;;;;;;0.60;0.60;;;7.60;99.90;;;;;;4997544;28;20206;-85
2021/04/10 10:33:51;;;;;;;0.60;0.60;;;6.80;99.90;;;;;;5006743;28;20234;-84
2021/04/10 10:36:20;;;;;;;0.60;0.60;;;7.60;99.90;;;;;;4993295;28;20213;-83
2021/04/10 10:38:47;;;;;;;0.60;0.60;;;7.10;99.90;;;;;;4986388;28;20574;-82
2021/04/10 10:41:16;;;;;;;0.60;0.60;;;7.20;99.90;;;;;;4989520;28;20222;-83
2021/04/10 10:43:44;;;;;;;0.50;0.50;;;7.30;99.90;;;;;;4989290;28;20489;-83
2021/04/10 10:46:11;;;;;;;0.60;0.60;;;7.50;99.90;;;;;;4990760;28;20217;-82
2021/04/10 10:48:40;;;;;;;0.60;0.60;;;7.80;99.90;;;;;;4989232;28;20317;-83
2021/04/10 10:51:09;;;;;;;0.60;0.60;;;7.90;99.90;;;;;;4995129;28;20272;-83
2021/04/10 10:53:37;;;;;;;0.60;0.60;;;8.00;99.90;;;;;;5008993;28;20228;-83
2021/04/10 10:56:12;;;;;;;0.55;0.55;;;8.40;99.90;;;;;;5009315;28;20206;-83
2021/04/10 10:58:44;;;;;;;0.60;0.60;;;8.60;99.90;;;;;;5009020;28;20502;-83
2021/04/10 11:01:22;;;;;;;0.60;0.60;;;8.30;99.90;;;;;;5008971;28;20344;-83
2021/04/10 11:03:58;;;;;;;0.60;0.60;;;8.50;99.90;;;;;;5009407;28;20559;-83
2021/04/10 11:06:27;;;;;;;0.60;0.60;;;8.50;99.90;;;;;;5009975;28;20416;-80
2021/04/10 11:17:05;;;;;;;0.60;0.60;;;8.50;99.90;;;;;;5953388;23;21271;-89
2021/04/10 11:19:34;;;;;;;0.60;0.60;;;8.20;99.90;;;;;;5021872;22;20242;-84
2021/04/10 11:22:01;;;;;;;0.60;0.60;;;8.00;99.90;;;;;;4992698;28;20213;-85
2021/04/10 11:24:35;;;;;;;0.60;0.60;;;9.40;99.90;;;;;;4996770;28;20210;-88
2021/04/10 11:39:58;;;;;;;0.60;0.60;;;9.50;99.90;;;;;;4970616;28;20437;-87
2021/04/10 11:42:29;;;;;;;0.60;0.60;;;10.80;99.90;;;;;;4973218;28;20273;-87
2021/04/10 11:45:00;;;;;;;0.60;0.60;;;9.00;99.90;;;;;;4973109;28;20214;-87
2021/04/10 11:47:33;;;;;;;0.50;0.50;;;10.40;99.90;;;;;;4971787;28;20223;-87
2021/04/10 11:50:11;;;;;;;0.60;0.60;;;10.80;99.90;;;;;;4953455;28;20208;-88
2021/04/10 11:52:38;;;;;;;0.60;0.60;;;10.70;99.90;;;;;;4952932;28;20765;-88
2021/04/10 11:55:09;;;;;;;0.60;0.60;;;9.40;99.90;;;;;;4953840;28;20212;-87
2021/04/10 11:57:37;;;;;;;0.57;0.57;;;10.00;99.90;;;;;;4953788;28;20211;-88
2021/04/10 12:00:09;;;;;;;0.60;0.60;;;11.40;99.90;;;;;;4953929;28;20687;-87
2021/04/10 12:02:39;;;;;;;0.60;0.60;;;10.10;99.90;;;;;;4953431;28;20261;-88
2021/04/10 12:05:24;;;;;;;0.52;0.52;;;10.50;99.90;;;;;;4953479;28;20204;-87
2021/04/10 12:08:12;;;;;;;0.60;0.60;;;9.30;99.90;;;;;;4953288;28;20661;-87
2021/04/10 12:10:41;;;;;;;0.60;0.60;;;8.90;99.90;;;;;;4953533;28;20270;-88
2021/04/10 12:13:09;;;;;;;0.60;0.60;;;8.90;99.90;;;;;;4953098;28;20208;-88
2021/04/10 12:15:37;;;;;;;0.50;0.50;;;10.30;99.90;;;;;;4953438;28;20219;-88
2021/04/10 12:18:52;;;;;;;0.60;0.60;;;10.20;99.90;;;;;;4954331;28;20232;-88
2021/04/10 12:21:19;;;;;;;0.60;0.60;;;9.90;99.90;;;;;;4840189;29;20215;-87
2021/04/10 12:23:45;;;;;;;0.60;0.60;;;10.90;99.90;;;;;;4926471;28;20261;-87
2021/04/10 12:26:12;;;;;;;0.60;0.60;;;10.50;99.90;;;;;;4953755;28;20697;-88
2021/04/10 12:28:38;;;;;;;0.60;0.60;;;10.80;99.90;;;;;;4951820;28;20219;-87
2021/04/10 12:31:09;;;;;;;0.60;0.60;;;10.90;99.90;;;;;;4953319;28;20208;-87
2021/04/10 12:33:36;;;;;;;0.60;0.60;;;10.00;99.90;;;;;;4953316;28;20274;-87
2021/04/10 12:36:02;;;;;;;0.60;0.60;;;9.80;99.90;;;;;;4954107;28;20283;-88
2021/04/10 12:38:29;;;;;;;0.60;0.60;;;10.20;99.90;;;;;;4953078;28;20702;-89
2021/04/10 12:40:55;;;;;;;0.60;0.60;;;9.90;99.90;;;;;;4952946;28;20263;-89
2021/04/10 12:43:22;;;;;;;0.60;0.60;;;9.80;99.90;;;;;;4953261;28;20693;-89
2021/04/10 12:45:48;;;;;;;0.60;0.60;;;10.00;99.90;;;;;;4953030;28;20215;-89
2021/04/10 12:48:15;;;;;;;0.60;0.60;;;10.20;99.90;;;;;;4953158;28;20224;-89
2021/04/10 12:50:41;;;;;;;0.60;0.60;;;9.80;99.90;;;;;;4954229;28;20215;-88
2021/04/10 12:53:07;;;;;;;0.50;0.50;;;9.60;99.90;;;;;;4952928;28;20219;-88
2021/04/10 12:55:34;;;;;;;0.60;0.60;;;9.50;99.90;;;;;;4953111;28;20204;-89
2021/04/10 12:58:00;;;;;;;0.60;0.60;;;10.10;99.90;;;;;;4953788;28;20207;-89
2021/04/10 13:00:27;;;;;;;0.60;0.60;;;10.60;99.90;;;;;;4952941;28;20212;-89
2021/04/10 13:02:54;;;;;;;0.60;0.60;;;10.30;99.90;;;;;;4952602;28;20214;-87
2021/04/10 13:05:20;;;;;;;0.60;0.60;;;10.80;99.90;;;;;;4953235;28;20241;-89
2021/04/10 13:07:48;;;;;;;0.60;0.60;;;10.80;99.90;;;;;;4952916;28;20231;-89
2021/04/10 13:10:15;;;;;;;0.60;0.60;;;10.10;99.90;;;;;;4952882;28;20303;-88
2021/04/10 13:12:41;;;;;;;0.60;0.60;;;9.70;99.90;;;;;;4952966;28;20215;-88
2021/04/10 13:15:09;;;;;;;0.50;0.50;;;9.60;99.90;;;;;;4952300;28;20223;-89
2021/04/10 13:17:37;;;;;;;0.60;0.60;;;9.40;99.90;;;;;;4952592;28;20223;-88
2021/04/10 13:20:05;;;;;;;0.60;0.60;;;9.50;99.90;;;;;;4953962;29;20212;-90
2021/04/10 13:22:32;;;;;;;0.60;0.60;;;9.90;99.90;;;;;;4954408;28;20247;-88
2021/04/10 13:24:58;;;;;;;0.60;0.60;;;10.30;99.90;;;;;;4957352;28;20211;-90
2021/04/10 13:27:24;;;;;;;0.50;0.50;;;9.60;99.90;;;;;;4952263;28;20223;-89
2021/04/10 13:29:50;;;;;;;0.60;0.60;;;10.10;99.90;;;;;;4952264;28;20637;-89
2021/04/10 13:32:17;;;;;;;0.60;0.60;;;9.90;99.90;;;;;;4952908;28;20562;-88
2021/04/10 13:34:44;;;;;;;0.50;0.50;;;9.70;99.90;;;;;;4953423;28;20589;-89
2021/04/10 13:37:10;;;;;;;0.60;0.60;;;9.90;99.90;;;;;;4957054;29;20202;-89
2021/04/10 13:39:36;;;;;;;0.60;0.60;;;9.90;99.90;;;;;;4953770;28;20247;-89
2021/04/10 13:42:02;;;;;;;0.60;0.60;;;9.90;99.90;;;;;;4952704;28;20286;-89
2021/04/10 13:44:29;;;;;;;0.60;0.60;;;9.50;99.90;;;;;;4952419;28;20207;-87
2021/04/10 13:46:55;;;;;;;0.50;0.50;;;9.40;99.90;;;;;;4955852;28;20208;-87
2021/04/10 13:49:22;;;;;;;0.60;0.60;;;9.10;99.90;;;;;;4967467;28;20208;-87
2021/04/10 13:52:18;;;;;;;0.60;0.60;;;9.40;99.90;;;;;;4978222;28;20296;-89
2021/04/10 13:54:45;;;;;;;0.60;0.60;;;9.50;99.90;;;;;;4979612;28;20214;-87
2021/04/10 14:00:15;;;;;;;0.60;0.60;;;9.50;99.90;;;;;;5962964;23;20627;-86
2021/04/10 14:22:48;;;;;;;0.60;0.60;;;9.80;99.90;;;;;;4995224;28;20217;-89
2021/04/10 14:25:16;;;;;;;0.60;0.60;;;9.50;99.90;;;;;;4986453;28;20225;-89
2021/04/10 14:27:46;;;;;;;0.60;0.60;;;9.40;99.90;;;;;;4990343;28;20230;-90
2021/04/10 14:30:17;;;;;;;0.60;0.60;;;11.70;99.90;;;;;;4990341;28;20661;-90
2021/04/10 14:32:44;;;;;;;0.60;0.60;;;8.40;99.90;;;;;;4990051;28;20218;-91
2021/04/10 14:35:13;;;;;;;0.60;0.60;;;11.40;99.90;;;;;;4989754;28;20238;-89
2021/04/10 14:37:41;;;;;;;0.60;0.60;;;9.60;99.90;;;;;;4990458;28;20496;-90
2021/04/10 14:40:09;;;;;;;0.60;0.60;;;11.20;99.90;;;;;;4989766;28;20202;-90
2021/04/10 14:42:36;;;;;;;0.60;0.60;;;9.50;99.90;;;;;;4990370;28;20199;-88
2021/04/10 14:45:02;;;;;;;0.60;0.60;;;10.10;99.90;;;;;;4990019;28;20301;-87
2021/04/10 14:47:29;;;;;;;0.60;0.60;;;9.30;99.90;;;;;;4990870;28;20301;-90
2021/04/10 14:49:55;;;;;;;0.60;0.60;;;8.70;99.90;;;;;;4989451;28;20198;-89
2021/04/10 14:52:21;;;;;;;0.60;0.60;;;10.50;99.90;;;;;;4989777;28;20226;-90
2021/04/10 14:54:52;;;;;;;0.60;0.60;;;9.00;99.90;;;;;;4990915;28;20214;-85
2021/04/10 14:57:19;;;;;;;0.60;0.60;;;8.60;99.90;;;;;;4988694;28;20297;-89
2021/04/10 14:59:45;;;;;;;0.60;0.60;;;10.90;99.90;;;;;;4988935;28;20241;-89
2021/04/10 15:02:12;;;;;;;0.60;0.60;;;10.90;99.90;;;;;;4990247;28;20217;-89
2021/04/10 15:04:38;;;;;;;0.60;0.60;;;8.30;99.90;;;;;;4992724;28;20217;-89
2021/04/10 15:07:07;;;;;;;0.55;0.55;;;9.50;99.90;;;;;;4999306;28;20262;-89
2021/04/10 15:09:33;;;;;;;0.60;0.60;;;9.10;99.90;;;;;;5006529;28;20225;-90
2021/04/10 15:11:59;;;;;;;0.60;0.60;;;10.80;99.90;;;;;;5001307;28;20214;-89
2021/04/10 15:14:29;;;;;;;0.60;0.60;;;7.40;99.90;;;;;;5003945;28;20266;-89
2021/04/10 15:17:06;;;;;;;0.60;0.60;;;8.50;99.90;;;;;;5014216;28;20198;-89
2021/04/10 15:19:38;;;;;;;0.60;0.60;;;8.80;99.90;;;;;;5019898;28;20202;-88
2021/04/10 15:22:08;;;;;;;0.60;0.60;;;8.40;99.90;;;;;;5015523;28;20213;-89
2021/04/10 15:27:25;;;;;;;0.60;0.60;;;9.60;99.90;;;;;;5016000;28;20226;-88
2021/04/10 15:30:22;;;;;;;0.60;0.60;;;8.70;99.90;;;;;;5018972;28;20196;-89
2021/04/10 15:33:05;;;;;;;0.60;0.60;;;8.40;99.90;;;;;;5012817;28;20207;-89
2021/04/10 15:35:44;;;;;;;0.60;0.60;;;9.10;99.90;;;;;;5018080;28;20234;-89
2021/04/10 15:38:13;;;;;;;0.60;0.60;;;8.30;99.90;;;;;;5013642;28;20194;-91
2021/04/10 15:40:39;;;;;;;0.60;0.60;;;8.50;99.90;;;;;;4992078;28;20241;-88
2021/04/10 15:43:05;;;;;;;0.57;0.57;;;8.40;99.90;;;;;;4992653;28;20636;-88
2021/04/10 15:45:32;;;;;;;0.60;0.60;;;10.80;99.90;;;;;;4992951;28;20233;-88
2021/04/10 15:47:59;;;;;;;0.60;0.60;;;9.30;99.90;;;;;;4992387;28;20229;-88
2021/04/10 15:50:31;;;;;;;0.60;0.60;;;9.70;99.90;;;;;;4988052;28;20433;-91
2021/04/10 15:52:59;;;;;;;0.60;0.60;;;7.40;99.90;;;;;;4985472;28;20223;-88
2021/04/10 15:55:25;;;;;;;0.60;0.60;;;9.40;99.90;;;;;;5000172;28;20214;-89
2021/04/10 15:57:52;;;;;;;0.60;0.60;;;8.00;99.90;;;;;;5000709;28;20210;-89
2021/04/10 16:00:19;;;;;;;0.60;0.60;;;9.80;99.90;;;;;;4996644;28;20638;-89
2021/04/10 16:02:46;;;;;;;0.60;0.60;;;8.40;99.90;;;;;;4997577;28;20234;-88
2021/04/10 16:05:14;;;;;;;0.60;0.60;;;7.90;99.90;;;;;;4999273;28;20649;-88
2021/04/10 16:07:40;;;;;;;0.60;0.60;;;8.70;99.90;;;;;;4999085;28;20234;-89
2021/04/10 16:10:09;;;;;;;0.60;0.60;;;7.50;99.90;;;;;;4998711;28;20285;-88
2021/04/10 16:12:35;;;;;;;0.60;0.60;;;8.40;99.90;;;;;;4986002;28;20213;-88
2021/04/10 16:15:03;;;;;;;0.60;0.60;;;8.20;99.90;;;;;;5001706;28;20246;-89
2021/04/10 16:17:29;;;;;;;0.60;0.60;;;8.50;99.90;;;;;;4999646;28;20679;-89
2021/04/10 16:20:00;;;;;;;0.60;0.60;;;7.80;99.90;;;;;;4998684;28;20286;-89
2021/04/10 16:22:27;;;;;;;0.60;0.60;;;8.30;99.90;;;;;;4997695;28;20213;-89
2021/04/10 16:24:55;;;;;;;0.60;0.60;;;6.90;99.90;;;;;;4997170;28;20439;-88
2021/04/10 16:27:24;;;;;;;0.60;0.60;;;8.50;99.90;;;;;;4994405;28;20292;-92
2021/04/10 16:29:50;;;;;;;0.57;0.57;;;9.00;99.90;;;;;;4991795;28;20285;-86
2021/04/10 16:32:26;;;;;;;0.60;0.60;;;8.40;99.90;;;;;;4994732;28;20206;-88
2021/04/10 16:34:53;;;;;;;0.60;0.60;;;8.60;99.90;;;;;;4992282;28;20728;-88
2021/04/10 16:37:21;;;;;;;0.60;0.60;;;9.20;99.90;;;;;;5000976;28;20658;-87
2021/04/10 16:40:11;;;;;;;0.60;0.60;;;10.70;99.90;;;;;;5000690;28;20214;-86
2021/04/10 16:42:37;;;;;;;0.60;0.60;;;9.20;99.90;;;;;;4991816;28;20206;-88
2021/04/10 16:45:09;;;;;;;0.60;0.60;;;8.60;99.90;;;;;;4997327;28;20222;-86
2021/04/10 16:47:36;;;;;;;0.60;0.60;;;8.50;99.90;;;;;;4994405;28;20198;-87
2021/04/10 16:50:07;;;;;;;0.60;0.60;;;8.30;99.90;;;;;;4994075;28;20570;-90
2021/04/10 16:52:34;;;;;;;0.60;0.60;;;8.20;99.90;;;;;;4992334;28;20265;-88
2021/04/10 16:55:02;;;;;;;0.60;0.60;;;8.60;99.90;;;;;;4993093;28;20237;-88
2021/04/10 16:57:28;;;;;;;0.60;0.60;;;8.20;99.90;;;;;;4991365;28;20241;-89
2021/04/10 16:59:55;;;;;;;0.60;0.60;;;8.10;99.90;;;;;;4991501;28;20240;-89
2021/04/10 17:02:21;;;;;;;0.60;0.60;;;8.40;99.90;;;;;;4987638;28;20301;-88
2021/04/10 17:04:47;;;;;;;0.50;0.50;;;8.50;99.90;;;;;;4990578;28;20589;-89
2021/04/10 17:07:14;;;;;;;0.60;0.60;;;8.40;99.90;;;;;;4990343;28;20210;-89
2021/04/10 17:09:41;;;;;;;0.60;0.60;;;7.90;99.90;;;;;;4989989;28;20436;-88
2021/04/10 17:12:09;;;;;;;0.60;0.60;;;8.30;99.90;;;;;;4981438;28;20207;-87
2021/04/10 17:14:59;;;;;;;0.60;0.60;;;8.40;99.90;;;;;;4986950;28;20349;-86
2021/04/10 17:17:28;;;;;;;0.50;0.50;;;8.20;99.90;;;;;;4967291;28;20635;-85
2021/04/10 17:19:54;;;;;;;0.60;0.60;;;8.40;99.90;;;;;;4977503;28;20431;-87
2021/04/10 17:22:21;;;;;;;0.50;0.50;;;8.20;99.90;;;;;;4970835;28;20617;-84
2021/04/10 17:24:48;;;;;;;0.60;0.60;;;8.30;99.90;;;;;;4971451;28;20235;-90
2021/04/10 17:27:15;;;;;;;0.60;0.60;;;8.20;99.90;;;;;;4973689;28;20214;-86
2021/04/10 17:29:43;;;;;;;0.60;0.60;;;8.30;99.90;;;;;;4971042;28;20230;-86
2021/04/10 17:32:09;;;;;;;0.60;0.60;;;8.20;99.90;;;;;;4970527;28;20210;-84
2021/04/10 17:34:35;;;;;;;0.60;0.60;;;8.20;99.90;;;;;;4970268;28;20203;-84
2021/04/10 17:37:01;;;;;;;0.60;0.60;;;8.20;99.90;;;;;;4970530;28;20676;-84
2021/04/10 17:39:28;;;;;;;0.60;0.60;;;8.20;99.90;;;;;;4970085;28;20206;-84
2021/04/10 17:41:55;;;;;;;0.60;0.60;;;8.10;99.90;;;;;;4970298;28;20199;-84
2021/04/10 17:44:22;;;;;;;0.60;0.60;;;8.30;99.90;;;;;;4970018;28;20206;-84
2021/04/10 17:46:48;;;;;;;0.60;0.60;;;8.10;99.90;;;;;;4970322;28;20207;-85
2021/04/10 17:49:14;;;;;;;0.60;0.60;;;8.00;99.90;;;;;;4969562;28;20705;-84
2021/04/10 17:51:41;;;;;;;0.60;0.60;;;8.00;99.90;;;;;;4986903;28;20233;-85
2021/04/10 17:54:10;;;;;;;0.60;0.60;;;8.00;99.90;;;;;;4988762;28;20210;-85
2021/04/10 17:56:36;;;;;;;0.60;0.60;;;7.70;99.90;;;;;;4989325;28;20237;-84
2021/04/10 17:59:06;;;;;;;0.60;0.60;;;7.80;99.90;;;;;;4989809;28;20214;-84
2021/04/10 18:01:35;;;;;;;0.60;0.60;;;7.90;99.90;;;;;;4989778;28;20206;-84
2021/04/10 18:04:05;;;;;;;0.60;0.60;;;7.90;99.90;;;;;;4989355;28;20206;-85
2021/04/10 18:06:36;;;;;;;0.60;0.60;;;7.90;99.90;;;;;;4989528;28;20206;-85
2021/04/10 18:09:08;;;;;;;0.60;0.60;;;8.10;99.90;;;;;;4989450;28;20249;-84
2021/04/10 18:11:34;;;;;;;0.60;0.60;;;7.80;99.90;;;;;;4989559;28;20283;-84
2021/04/10 18:14:03;;;;;;;0.60;0.60;;;7.80;99.90;;;;;;4989383;28;20540;-85
2021/04/10 18:16:30;;;;;;;0.60;0.60;;;7.80;99.90;;;;;;4989217;28;20229;-85
2021/04/10 18:18:56;;;;;;;0.60;0.60;;;7.80;99.90;;;;;;4991745;28;20210;-87
2021/04/10 18:21:23;;;;;;;0.60;0.60;;;7.80;99.90;;;;;;4989536;28;20216;-85
2021/04/10 18:23:49;;;;;;;0.60;0.60;;;7.80;99.90;;;;;;4990066;28;20245;-87
2021/04/10 18:26:18;;;;;;;0.60;0.60;;;7.90;99.90;;;;;;4989627;28;20225;-87
2021/04/10 18:28:46;;;;;;;0.60;0.60;;;7.80;99.90;;;;;;4989255;28;20304;-86
2021/04/10 18:31:12;;;;;;;0.57;0.57;;;7.80;99.90;;;;;;5108077;23;20216;-84
2021/04/10 18:33:40;;;;;;;0.60;0.60;;;9.30;99.90;;;;;;4998107;28;20440;-88
2021/04/10 18:36:14;;;;;;;0.50;0.50;;;6.60;99.90;;;;;;5005470;28;20205;-89
2021/04/10 18:38:41;;;;;;;0.60;0.60;;;7.70;99.90;;;;;;5001608;28;20677;-88
2021/04/10 18:41:09;;;;;;;0.60;0.60;;;6.80;99.90;;;;;;5000398;28;20239;-87
2021/04/10 18:43:37;;;;;;;0.60;0.60;;;8.10;99.90;;;;;;4996087;28;20214;-88
2021/04/10 18:46:06;;;;;;;0.60;0.60;;;8.80;99.90;;;;;;4996309;28;20658;-89
2021/04/10 18:48:33;;;;;;;0.60;0.60;;;7.80;99.90;;;;;;5005492;28;20230;-89
2021/04/10 18:51:03;;;;;;;0.60;0.60;;;8.30;99.90;;;;;;5011769;28;20226;-89
2021/04/10 18:53:31;;;;;;;0.60;0.60;;;9.30;99.90;;;;;;5017655;28;20205;-89
2021/04/10 18:56:03;;;;;;;0.50;0.50;;;9.30;99.90;;;;;;5018365;28;20276;-88
2021/04/10 18:58:29;;;;;;;0.60;0.60;;;9.00;99.90;;;;;;5017023;28;20201;-89